Time;durP1;ratioP1;P1;durP2;ratioP2;P2;SDS_P1;SDS_P2;PMS_P1;PMS_P2;Temp;Humidity;BMP_temperature;BMP_pressure;BME280_temperature;BME280_humidity;BME280_pressure;Samples;Min_cycle;Max_cycle;Signal;HPM_P1;HPM_P2
2023/07/11 00:00:14;;;;;;;2.53;0.90;;;20.10;99.90;;;;;;5051330;28;20032;-72
2023/07/11 00:02:42;;;;;;;3.00;1.00;;;20.10;99.90;;;;;;5031240;28;20032;-72
2023/07/11 00:05:09;;;;;;;3.47;0.85;;;20.00;99.90;;;;;;5046906;28;20032;-72
2023/07/11 00:07:35;;;;;;;3.28;1.00;;;20.00;99.90;;;;;;5045633;28;20067;-72
2023/07/11 00:10:01;;;;;;;3.55;0.85;;;19.90;99.90;;;;;;5042124;28;20354;-72
2023/07/11 00:12:28;;;;;;;2.85;0.75;;;19.90;99.90;;;;;;5041578;28;20051;-72
2023/07/11 00:14:56;;;;;;;3.50;0.80;;;19.90;99.90;;;;;;5047602;28;20047;-72
2023/07/11 00:17:23;;;;;;;2.97;1.05;;;19.90;99.90;;;;;;5072737;28;20047;-72
2023/07/11 00:19:56;;;;;;;3.65;1.02;;;19.80;99.90;;;;;;5053198;28;20032;-73
2023/07/11 00:22:27;;;;;;;2.67;0.88;;;19.80;99.90;;;;;;5048373;28;20036;-73
2023/07/11 00:24:54;;;;;;;6.40;1.20;;;19.80;99.90;;;;;;5030375;28;20616;-72
2023/07/11 00:27:23;;;;;;;4.25;1.20;;;19.70;99.90;;;;;;5045164;28;20036;-72
2023/07/11 00:29:50;;;;;;;2.63;0.82;;;19.70;99.90;;;;;;5041381;28;20880;-73
2023/07/11 00:32:17;;;;;;;3.05;1.00;;;19.70;99.90;;;;;;5043293;28;20036;-73
2023/07/11 00:34:44;;;;;;;3.15;1.00;;;19.70;99.90;;;;;;5028295;28;20414;-72
2023/07/11 00:37:10;;;;;;;2.58;1.00;;;19.70;99.90;;;;;;5048876;28;20047;-72
2023/07/11 00:39:37;;;;;;;2.22;0.80;;;19.60;99.90;;;;;;5054776;28;20482;-72
2023/07/11 00:42:06;;;;;;;2.75;1.20;;;19.60;99.90;;;;;;5049741;28;20044;-72
2023/07/11 00:45:03;;;;;;;2.13;0.70;;;19.60;99.90;;;;;;5043619;28;20059;-73
2023/07/11 00:47:31;;;;;;;2.03;0.70;;;19.60;99.90;;;;;;5026073;28;20541;-72
2023/07/11 00:50:05;;;;;;;2.00;0.88;;;19.60;99.90;;;;;;5011665;28;20558;-72
2023/07/11 00:52:35;;;;;;;4.20;1.00;;;19.60;99.90;;;;;;5027223;28;20799;-72
2023/07/11 00:55:06;;;;;;;2.78;0.93;;;19.60;99.90;;;;;;5043664;28;20737;-73
2023/07/11 00:57:38;;;;;;;1.40;0.60;;;19.60;99.90;;;;;;5068074;28;20047;-72
2023/07/11 01:00:06;;;;;;;3.53;0.80;;;19.60;99.90;;;;;;5052811;28;20032;-72
2023/07/11 01:02:33;;;;;;;2.42;0.70;;;19.60;99.90;;;;;;5047964;28;20032;-72
2023/07/11 01:05:01;;;;;;;2.65;0.80;;;19.50;99.90;;;;;;5041447;28;20513;-72
2023/07/11 01:07:31;;;;;;;2.70;0.77;;;19.50;99.90;;;;;;5045638;28;20043;-72
2023/07/11 01:09:58;;;;;;;3.10;0.70;;;19.60;99.90;;;;;;5010490;28;20040;-73
2023/07/11 01:12:24;;;;;;;2.17;0.80;;;19.50;99.90;;;;;;5042034;28;20036;-72
2023/07/11 01:14:52;;;;;;;2.58;0.70;;;19.50;99.90;;;;;;5044315;28;20039;-73
2023/07/11 01:17:33;;;;;;;2.53;0.70;;;19.50;99.90;;;;;;5036170;28;20041;-72
2023/07/11 01:20:03;;;;;;;2.00;0.82;;;19.50;99.90;;;;;;5051879;28;20569;-72
2023/07/11 01:22:30;;;;;;;2.33;0.73;;;19.50;99.90;;;;;;5048068;28;20040;-72
2023/07/11 01:25:01;;;;;;;2.67;0.80;;;19.50;99.90;;;;;;5045953;28;20036;-72
2023/07/11 01:27:27;;;;;;;2.70;0.80;;;19.50;99.90;;;;;;5026485;28;20063;-72
2023/07/11 01:29:57;;;;;;;2.97;0.90;;;19.50;99.90;;;;;;5040672;28;20037;-72
2023/07/11 01:32:23;;;;;;;1.80;0.85;;;19.50;99.90;;;;;;5040376;28;20602;-72
2023/07/11 01:34:50;;;;;;;3.50;0.90;;;19.50;99.90;;;;;;5044519;28;20045;-72
2023/07/11 01:37:16;;;;;;;2.20;0.75;;;19.40;99.90;;;;;;5035633;28;20048;-72
2023/07/11 01:39:43;;;;;;;4.65;1.45;;;19.50;99.90;;;;;;5033016;28;21631;-72
2023/07/11 01:42:09;;;;;;;4.70;0.90;;;19.40;99.90;;;;;;5052001;28;20734;-72
2023/07/11 01:44:37;;;;;;;5.40;1.30;;;19.40;99.90;;;;;;5045669;28;20043;-72
2023/07/11 01:47:03;;;;;;;2.80;1.10;;;19.40;99.90;;;;;;5044472;28;20390;-72
2023/07/11 01:49:30;;;;;;;1.58;0.60;;;19.40;99.90;;;;;;5024013;28;20035;-72
2023/07/11 01:52:11;;;;;;;4.10;0.98;;;19.40;99.90;;;;;;5024367;28;20040;-72
2023/07/11 01:54:39;;;;;;;2.17;0.60;;;19.40;99.90;;;;;;5045269;28;20036;-72
2023/07/11 01:57:09;;;;;;;3.72;0.93;;;19.30;99.90;;;;;;5047884;28;20051;-72
2023/07/11 01:59:37;;;;;;;3.58;1.10;;;19.30;99.90;;;;;;5030537;28;20059;-72
2023/07/11 02:02:04;;;;;;;2.28;0.85;;;19.30;99.90;;;;;;5051953;28;20032;-72
2023/07/11 02:04:32;;;;;;;1.50;0.70;;;19.30;99.90;;;;;;5030949;28;20032;-72
2023/07/11 02:06:59;;;;;;;2.80;0.80;;;19.20;99.90;;;;;;5011109;28;20059;-72
2023/07/11 02:09:25;;;;;;;2.40;0.65;;;19.20;99.90;;;;;;5040395;28;20039;-72
2023/07/11 02:11:51;;;;;;;1.60;0.80;;;19.20;99.90;;;;;;5041207;28;20047;-72
2023/07/11 02:14:20;;;;;;;3.00;0.93;;;19.20;99.90;;;;;;5043952;28;20036;-72
2023/07/11 02:16:48;;;;;;;2.70;0.80;;;19.10;99.90;;;;;;5045476;28;20490;-72
2023/07/11 02:19:18;;;;;;;3.53;0.90;;;19.10;99.90;;;;;;5044458;28;20061;-72
2023/07/11 02:21:45;;;;;;;2.70;1.13;;;19.10;99.90;;;;;;5039467;28;20044;-72
2023/07/11 02:24:14;;;;;;;4.80;1.30;;;19.00;99.90;;;;;;5054732;28;20024;-72
2023/07/11 02:26:40;;;;;;;2.13;0.80;;;19.00;99.90;;;;;;5049043;28;20040;-72
2023/07/11 02:29:07;;;;;;;2.58;0.90;;;19.00;99.90;;;;;;5028661;28;20036;-72
2023/07/11 02:31:35;;;;;;;2.13;0.80;;;18.90;99.90;;;;;;5029946;28;20040;-72
2023/07/11 02:34:02;;;;;;;2.88;0.82;;;18.90;99.90;;;;;;5045466;28;20040;-73
2023/07/11 02:36:29;;;;;;;2.30;0.75;;;18.90;99.90;;;;;;5047300;28;20043;-73
2023/07/11 02:38:55;;;;;;;3.58;1.05;;;18.80;99.90;;;;;;5069724;28;20035;-72
2023/07/11 02:41:22;;;;;;;3.47;1.08;;;18.80;99.90;;;;;;5058202;28;20039;-72
2023/07/11 02:43:48;;;;;;;3.63;1.30;;;18.80;99.90;;;;;;5047836;28;20036;-73
2023/07/11 02:46:15;;;;;;;3.13;1.30;;;18.80;99.90;;;;;;5064225;28;20040;-72
2023/07/11 02:48:43;;;;;;;1.90;0.90;;;18.70;99.90;;;;;;5044665;28;20694;-73
2023/07/11 02:51:10;;;;;;;2.38;0.90;;;18.70;99.90;;;;;;5045211;28;20024;-72
2023/07/11 02:53:37;;;;;;;3.35;0.80;;;18.60;99.90;;;;;;5044495;28;20391;-72
2023/07/11 02:56:04;;;;;;;3.70;1.00;;;18.60;99.90;;;;;;5047925;28;20028;-73
2023/07/11 02:58:30;;;;;;;2.90;1.02;;;18.50;99.90;;;;;;5046638;28;20043;-72
2023/07/11 03:01:00;;;;;;;2.40;0.80;;;18.50;99.90;;;;;;5034643;28;20687;-72
2023/07/11 03:03:27;;;;;;;2.38;0.70;;;18.50;99.90;;;;;;5052467;28;20491;-72
2023/07/11 03:05:55;;;;;;;2.17;0.90;;;18.40;99.90;;;;;;5037914;28;20576;-72
2023/07/11 03:08:22;;;;;;;3.50;0.90;;;18.40;99.90;;;;;;5045805;28;20035;-72
2023/07/11 03:10:49;;;;;;;3.63;1.05;;;18.40;99.90;;;;;;5026433;28;20028;-73
2023/07/11 03:13:15;;;;;;;3.33;1.10;;;18.40;99.90;;;;;;5025458;28;20044;-73
2023/07/11 03:15:42;;;;;;;3.35;1.02;;;18.30;99.90;;;;;;5046268;28;20031;-73
2023/07/11 03:18:08;;;;;;;2.47;0.80;;;18.30;99.90;;;;;;5047970;28;20039;-73
2023/07/11 03:20:39;;;;;;;2.88;0.90;;;18.30;99.90;;;;;;5052877;28;20039;-72
2023/07/11 03:23:07;;;;;;;2.50;0.88;;;18.30;99.90;;;;;;5053798;28;20027;-73
2023/07/11 03:25:33;;;;;;;2.53;1.20;;;18.20;99.90;;;;;;5054217;28;20036;-72
2023/07/11 03:28:00;;;;;;;3.10;0.70;;;18.20;99.90;;;;;;5048176;28;20035;-73
2023/07/11 03:30:26;;;;;;;3.75;1.08;;;18.20;99.90;;;;;;5011136;28;20040;-72
2023/07/11 03:32:53;;;;;;;2.25;0.80;;;18.20;99.90;;;;;;5042885;28;20032;-72
2023/07/11 03:35:19;;;;;;;3.30;0.60;;;18.20;99.90;;;;;;5046277;28;20028;-73
2023/07/11 03:37:45;;;;;;;3.30;0.90;;;18.20;99.90;;;;;;5015438;28;20044;-72
2023/07/11 03:40:12;;;;;;;2.13;0.70;;;18.20;99.90;;;;;;5029653;28;20028;-72
2023/07/11 03:42:38;;;;;;;2.03;1.00;;;18.20;99.90;;;;;;5053576;28;20493;-72
2023/07/11 03:45:05;;;;;;;2.55;1.20;;;18.20;99.90;;;;;;5056456;28;20079;-72
2023/07/11 03:47:32;;;;;;;2.55;1.05;;;18.20;99.90;;;;;;5048796;28;20028;-72
2023/07/11 03:49:58;;;;;;;2.65;1.20;;;18.20;99.90;;;;;;5042068;28;21420;-72
2023/07/11 03:52:24;;;;;;;2.15;1.00;;;18.20;99.90;;;;;;5024604;28;20052;-72
2023/07/11 03:54:51;;;;;;;1.80;0.90;;;18.20;99.90;;;;;;5046507;28;20054;-72
2023/07/11 03:57:17;;;;;;;4.25;1.48;;;18.20;99.90;;;;;;5044654;28;20046;-72
2023/07/11 03:59:44;;;;;;;3.17;1.00;;;18.20;99.90;;;;;;5043378;28;20036;-72
2023/07/11 04:02:10;;;;;;;2.45;0.80;;;18.20;99.90;;;;;;5034376;28;20050;-72
2023/07/11 04:04:36;;;;;;;2.45;0.80;;;18.20;99.90;;;;;;5056313;28;20032;-72
2023/07/11 04:07:04;;;;;;;2.25;0.95;;;18.20;99.90;;;;;;5035128;28;20594;-72
2023/07/11 04:09:31;;;;;;;2.85;1.00;;;18.20;99.90;;;;;;5042299;28;20051;-72
2023/07/11 04:11:57;;;;;;;1.30;0.70;;;18.30;99.90;;;;;;5058888;28;20044;-72
2023/07/11 04:14:23;;;;;;;2.35;0.70;;;18.30;99.90;;;;;;5046279;28;20028;-72
2023/07/11 04:16:49;;;;;;;4.25;0.70;;;18.30;99.90;;;;;;5031383;28;20514;-72
2023/07/11 04:19:17;;;;;;;2.80;0.95;;;18.30;99.90;;;;;;5040404;28;20047;-72
2023/07/11 04:21:43;;;;;;;2.85;0.73;;;18.30;99.90;;;;;;5066562;28;20036;-72
2023/07/11 04:24:09;;;;;;;3.17;0.90;;;18.30;99.90;;;;;;5056809;28;20032;-72
2023/07/11 04:26:36;;;;;;;2.83;0.63;;;18.40;99.90;;;;;;5055903;28;20032;-72
2023/07/11 04:29:02;;;;;;;2.78;0.90;;;18.40;99.90;;;;;;5042170;28;21680;-72
2023/07/11 04:31:28;;;;;;;2.38;0.93;;;18.50;99.90;;;;;;5030874;28;20047;-72
2023/07/11 04:33:55;;;;;;;2.47;0.90;;;18.50;99.90;;;;;;5023166;28;20047;-72
2023/07/11 04:36:21;;;;;;;1.50;0.80;;;18.60;99.90;;;;;;5032207;28;20036;-72
2023/07/11 04:38:47;;;;;;;2.33;0.60;;;18.60;99.90;;;;;;5043384;28;20773;-72
2023/07/11 04:41:14;;;;;;;1.45;0.70;;;18.70;99.90;;;;;;5047041;28;20052;-72
2023/07/11 04:43:40;;;;;;;1.83;0.80;;;18.80;99.90;;;;;;5050472;28;20039;-73
2023/07/11 04:46:07;;;;;;;3.60;1.35;;;18.90;99.90;;;;;;5023901;28;20036;-72
2023/07/11 04:48:35;;;;;;;2.78;1.10;;;19.00;99.90;;;;;;5055890;28;20032;-72
2023/07/11 04:51:05;;;;;;;4.10;1.23;;;19.10;99.90;;;;;;5026605;28;20036;-73
2023/07/11 04:53:32;;;;;;;3.95;1.05;;;19.20;99.90;;;;;;5044387;28;20987;-73
2023/07/11 04:56:01;;;;;;;4.20;1.30;;;19.30;99.90;;;;;;5048643;28;20043;-75
2023/07/11 04:58:31;;;;;;;2.97;1.33;;;19.40;99.90;;;;;;5046729;28;20471;-72
2023/07/11 05:01:02;;;;;;;2.28;0.73;;;19.60;99.90;;;;;;5044247;28;20036;-73
2023/07/11 05:03:29;;;;;;;2.40;0.70;;;19.60;99.90;;;;;;5034464;28;20016;-74
2023/07/11 05:05:56;;;;;;;3.70;1.02;;;19.60;99.90;;;;;;5055741;28;20051;-72
2023/07/11 05:08:23;;;;;;;3.22;1.02;;;19.80;99.90;;;;;;5057132;28;20028;-72
2023/07/11 05:11:12;;;;;;;4.18;1.13;;;19.90;99.90;;;;;;5044819;28;20031;-73
2023/07/11 05:13:40;;;;;;;3.38;0.90;;;20.10;99.90;;;;;;5068369;28;20036;-73
2023/07/11 05:16:11;;;;;;;2.90;1.20;;;20.30;99.90;;;;;;5059261;28;20044;-73
2023/07/11 05:18:40;;;;;;;3.78;1.10;;;20.40;99.90;;;;;;5055671;28;20040;-72
2023/07/11 05:21:08;;;;;;;2.72;0.80;;;20.60;99.90;;;;;;5045040;28;20474;-72
2023/07/11 05:23:36;;;;;;;3.97;1.17;;;20.70;99.90;;;;;;5045531;28;20027;-72
2023/07/11 05:26:03;;;;;;;4.50;1.33;;;20.80;99.90;;;;;;5033522;28;20032;-73
2023/07/11 05:28:30;;;;;;;5.57;1.10;;;20.90;99.90;;;;;;5063799;28;20036;-72
2023/07/11 05:30:56;;;;;;;3.22;1.45;;;21.10;99.90;;;;;;5028211;28;20040;-72
2023/07/11 05:33:23;;;;;;;4.93;1.25;;;21.20;99.90;;;;;;5051295;28;20032;-72
2023/07/11 05:38:49;;;;;;;4.85;1.38;;;21.50;99.90;;;;;;5042334;28;20052;-72
2023/07/11 05:41:16;;;;;;;2.90;0.80;;;21.60;99.90;;;;;;5048541;28;20024;-72
2023/07/11 05:43:42;;;;;;;3.35;1.13;;;21.70;99.90;;;;;;5046247;28;20494;-72
2023/07/11 05:46:09;;;;;;;3.65;1.10;;;21.90;99.90;;;;;;5049047;28;20028;-72
2023/07/11 05:48:36;;;;;;;2.40;1.08;;;22.00;99.90;;;;;;5048985;28;20398;-72
2023/07/11 05:51:08;;;;;;;2.97;1.02;;;22.10;99.90;;;;;;5043414;28;20016;-73
2023/07/11 05:53:36;;;;;;;2.63;0.95;;;22.30;99.90;;;;;;5049328;28;20020;-72
2023/07/11 05:56:03;;;;;;;2.30;1.23;;;22.50;99.90;;;;;;5074011;28;20052;-72
2023/07/11 05:58:31;;;;;;;4.07;1.63;;;22.60;99.90;;;;;;5062813;28;20456;-71
2023/07/11 06:00:58;;;;;;;2.97;1.45;;;22.70;99.90;;;;;;5049236;28;20040;-72
2023/07/11 06:03:27;;;;;;;5.45;0.98;;;22.80;99.90;;;;;;5030608;28;20422;-71
2023/07/11 06:05:57;;;;;;;2.85;1.25;;;23.00;99.90;;;;;;5053986;28;20039;-71
2023/07/11 06:08:24;;;;;;;3.10;0.98;;;23.10;99.90;;;;;;5053904;28;20051;-71
2023/07/11 06:10:50;;;;;;;3.08;1.20;;;23.20;99.90;;;;;;5048382;28;21141;-71
2023/07/11 06:13:16;;;;;;;3.58;1.20;;;23.40;99.90;;;;;;5049038;28;20498;-71
2023/07/11 06:15:43;;;;;;;4.43;1.10;;;23.50;99.90;;;;;;5058294;28;20036;-72
2023/07/11 06:18:09;;;;;;;2.13;1.10;;;23.70;99.90;;;;;;5060705;28;20048;-71
2023/07/11 06:20:35;;;;;;;2.72;0.70;;;24.00;99.90;;;;;;5055763;28;20028;-71
2023/07/11 06:23:01;;;;;;;3.80;1.35;;;24.20;99.90;;;;;;5049028;28;20722;-71
2023/07/11 06:25:28;;;;;;;3.88;1.30;;;24.60;99.90;;;;;;5053332;28;20035;-71
2023/07/11 06:27:54;;;;;;;2.42;1.00;;;24.90;99.90;;;;;;5036066;28;20032;-78
2023/07/11 06:30:20;;;;;;;3.42;1.02;;;25.20;99.90;;;;;;5048126;28;20028;-72
2023/07/11 06:32:46;;;;;;;2.55;1.00;;;25.40;99.90;;;;;;5049692;28;20480;-72
2023/07/11 06:35:13;;;;;;;2.42;0.70;;;25.50;99.90;;;;;;5055228;28;20339;-72
2023/07/11 06:37:39;;;;;;;1.83;1.02;;;25.60;99.90;;;;;;5060012;28;20483;-72
2023/07/11 06:40:08;;;;;;;3.83;0.93;;;25.70;99.90;;;;;;5053128;28;20037;-72
2023/07/11 06:42:35;;;;;;;3.42;0.80;;;25.70;99.90;;;;;;5050095;28;20468;-72
2023/07/11 06:45:02;;;;;;;5.28;0.95;;;25.70;99.90;;;;;;5050957;28;20036;-72
2023/07/11 06:47:28;;;;;;;2.08;0.85;;;25.80;99.90;;;;;;5050161;28;20039;-75
2023/07/11 06:49:55;;;;;;;2.45;1.13;;;25.90;99.90;;;;;;5028319;28;20039;-72
2023/07/11 06:52:21;;;;;;;2.83;1.10;;;26.10;99.90;;;;;;5048761;28;20465;-72
2023/07/11 06:54:47;;;;;;;3.10;0.90;;;26.20;99.70;;;;;;5053901;28;20031;-71
2023/07/11 06:57:14;;;;;;;4.72;1.27;;;26.20;99.70;;;;;;5060624;28;20047;-71
2023/07/11 06:59:41;;;;;;;3.53;0.93;;;26.30;99.60;;;;;;5055191;28;20035;-71
2023/07/11 07:02:09;;;;;;;3.75;1.08;;;26.40;99.50;;;;;;5020061;28;20395;-71
2023/07/11 07:04:35;;;;;;;1.92;0.80;;;26.50;99.40;;;;;;5035537;28;20043;-72
2023/07/11 07:07:02;;;;;;;4.47;1.55;;;26.60;99.10;;;;;;5048968;28;20024;-71
2023/07/11 07:09:28;;;;;;;3.00;1.00;;;26.70;98.60;;;;;;5029246;28;20463;-71
2023/07/11 07:11:55;;;;;;;4.32;0.85;;;26.80;98.30;;;;;;5032156;28;20492;-71
2023/07/11 07:14:22;;;;;;;2.53;0.85;;;26.80;97.80;;;;;;5050287;28;20390;-71
2023/07/11 07:16:48;;;;;;;3.33;1.30;;;26.90;97.80;;;;;;5027520;28;20027;-71
2023/07/11 07:19:15;;;;;;;2.22;0.90;;;27.10;97.20;;;;;;5038238;28;20398;-71
2023/07/11 07:21:41;;;;;;;4.72;1.05;;;27.10;96.90;;;;;;5036429;28;20036;-71
2023/07/11 07:24:08;;;;;;;5.30;1.20;;;27.20;96.50;;;;;;5049213;28;20036;-71
2023/07/11 07:26:34;;;;;;;2.90;0.90;;;27.20;96.00;;;;;;5052119;28;20043;-72
2023/07/11 07:29:00;;;;;;;3.25;0.82;;;27.30;96.20;;;;;;5063115;28;20032;-71
2023/07/11 07:31:29;;;;;;;3.15;1.00;;;27.30;95.90;;;;;;5051020;28;20020;-71
2023/07/11 07:33:55;;;;;;;2.55;0.80;;;27.40;95.60;;;;;;5047261;28;20044;-71
2023/07/11 07:36:21;;;;;;;3.40;1.23;;;27.40;95.30;;;;;;5058288;28;20462;-71
2023/07/11 07:38:48;;;;;;;2.80;1.13;;;27.50;95.20;;;;;;5025108;28;20277;-71
2023/07/11 07:41:14;;;;;;;4.30;0.93;;;27.70;95.20;;;;;;5057791;28;20016;-71
2023/07/11 07:43:43;;;;;;;3.83;1.20;;;27.80;95.00;;;;;;5038806;28;20056;-72
2023/07/11 07:46:17;;;;;;;5.32;1.10;;;27.90;95.00;;;;;;5050892;28;20543;-71
2023/07/11 07:48:43;;;;;;;4.10;1.23;;;28.00;94.70;;;;;;5051205;28;20283;-71
2023/07/11 07:51:13;;;;;;;3.67;1.10;;;28.10;94.20;;;;;;5045359;28;20031;-71
2023/07/11 07:53:39;;;;;;;3.22;1.17;;;28.10;94.20;;;;;;5030590;28;20040;-71
2023/07/11 07:56:14;;;;;;;3.80;1.30;;;28.20;94.00;;;;;;5052340;28;20035;-72
2023/07/11 07:58:40;;;;;;;2.65;0.80;;;28.30;93.60;;;;;;5058431;28;20027;-71
2023/07/11 08:01:07;;;;;;;5.68;1.10;;;28.30;93.30;;;;;;5053006;28;20040;-71
2023/07/11 08:03:36;;;;;;;3.13;1.20;;;28.40;93.00;;;;;;5070779;28;21344;-71
2023/07/11 08:06:03;;;;;;;3.55;1.10;;;28.40;92.50;;;;;;5032587;28;20047;-71
2023/07/11 08:08:29;;;;;;;5.40;1.38;;;28.50;92.30;;;;;;5053195;28;20047;-71
2023/07/11 08:10:59;;;;;;;3.97;1.00;;;28.60;92.20;;;;;;5048287;28;20494;-71
2023/07/11 08:13:25;;;;;;;3.63;0.80;;;28.70;91.90;;;;;;5048391;28;20032;-71
2023/07/11 08:15:52;;;;;;;1.63;0.80;;;28.90;91.90;;;;;;5050387;28;20043;-71
2023/07/11 08:18:18;;;;;;;1.98;0.75;;;29.00;91.80;;;;;;5054885;28;20391;-71
2023/07/11 08:20:44;;;;;;;3.45;0.90;;;29.20;91.40;;;;;;5054027;28;20486;-71
2023/07/11 08:23:11;;;;;;;4.40;0.77;;;29.30;91.00;;;;;;5039642;28;20039;-72
2023/07/11 08:25:37;;;;;;;2.38;0.75;;;29.40;90.60;;;;;;5037617;28;20047;-72
2023/07/11 08:28:04;;;;;;;2.67;0.88;;;29.50;90.00;;;;;;5064943;28;20382;-71
2023/07/11 08:30:35;;;;;;;2.50;0.80;;;29.60;89.70;;;;;;5046545;28;20611;-71
2023/07/11 08:33:02;;;;;;;2.10;0.73;;;29.60;88.20;;;;;;5048570;28;20043;-71
2023/07/11 08:35:28;;;;;;;2.25;0.70;;;29.70;87.30;;;;;;5031650;28;21314;-71
2023/07/11 08:37:55;;;;;;;2.70;0.80;;;29.80;86.20;;;;;;5051920;28;20028;-71
2023/07/11 08:40:25;;;;;;;4.30;0.80;;;29.90;86.10;;;;;;5053660;28;20028;-71
2023/07/11 08:42:52;;;;;;;2.72;0.60;;;30.10;85.40;;;;;;5068868;28;20062;-71
2023/07/11 08:45:27;;;;;;;3.42;1.15;;;30.20;84.40;;;;;;5056438;28;20036;-71
2023/07/11 08:47:58;;;;;;;2.72;0.68;;;30.30;83.80;;;;;;5049898;28;20105;-71
2023/07/11 08:50:29;;;;;;;1.33;0.60;;;30.30;83.30;;;;;;5059204;28;20028;-71
2023/07/11 08:53:18;;;;;;;3.15;1.00;;;30.30;83.20;;;;;;5028234;28;20028;-72
2023/07/11 08:55:48;;;;;;;3.50;0.90;;;30.30;82.40;;;;;;5050292;28;20035;-72
2023/07/11 08:58:32;;;;;;;2.38;0.70;;;30.40;82.40;;;;;;5050403;28;20316;-71
2023/07/11 09:01:02;;;;;;;2.20;0.70;;;30.50;81.50;;;;;;5052472;28;20024;-71
2023/07/11 09:03:35;;;;;;;2.88;0.80;;;30.70;81.50;;;;;;5053691;28;20267;-71
2023/07/11 09:06:06;;;;;;;2.92;0.70;;;30.80;80.70;;;;;;5058407;28;20136;-71
2023/07/11 09:08:35;;;;;;;3.73;0.97;;;30.90;79.90;;;;;;5051181;28;20523;-72
2023/07/11 09:11:24;;;;;;;5.47;0.80;;;31.10;79.50;;;;;;5047112;28;20470;-71
2023/07/11 09:14:22;;;;;;;4.63;0.90;;;31.20;78.90;;;;;;5045090;28;20035;-72
2023/07/11 09:17:01;;;;;;;3.30;0.85;;;31.20;78.20;;;;;;5048330;28;20028;-72
2023/07/11 09:19:39;;;;;;;2.83;0.80;;;31.20;77.90;;;;;;5046847;28;20036;-72
2023/07/11 09:22:41;;;;;;;1.77;0.65;;;31.30;78.20;;;;;;5053576;28;20321;-71
2023/07/11 09:25:10;;;;;;;1.92;0.85;;;31.60;77.70;;;;;;5058384;28;20035;-72
2023/07/11 09:27:42;;;;;;;3.38;0.73;;;31.80;76.30;;;;;;5048811;28;20039;-71
2023/07/11 09:30:30;;;;;;;2.95;0.80;;;31.80;76.30;;;;;;5046244;28;20036;-71
2023/07/11 09:33:10;;;;;;;2.25;0.60;;;31.70;75.40;;;;;;5050638;28;20340;-71
2023/07/11 09:35:37;;;;;;;2.67;0.57;;;31.70;75.80;;;;;;5053773;28;20024;-71
2023/07/11 09:38:10;;;;;;;2.47;0.70;;;31.70;76.10;;;;;;5032808;28;20091;-72
2023/07/11 09:41:01;;;;;;;3.47;0.70;;;31.70;75.70;;;;;;5051155;28;20051;-71
2023/07/11 09:43:27;;;;;;;3.22;0.70;;;31.50;74.70;;;;;;5056585;28;20055;-71
2023/07/11 09:45:54;;;;;;;5.32;0.75;;;31.40;74.20;;;;;;5061649;28;20609;-72
2023/07/11 09:48:28;;;;;;;5.13;0.80;;;31.30;73.80;;;;;;5054611;28;20040;-71
2023/07/11 09:51:24;;;;;;;2.22;0.60;;;31.50;73.90;;;;;;5052025;28;20027;-71
2023/07/11 09:53:55;;;;;;;3.42;0.70;;;31.70;73.50;;;;;;5050828;28;20036;-72
2023/07/11 09:56:24;;;;;;;3.05;0.80;;;31.90;73.10;;;;;;5053996;28;20044;-72
2023/07/11 09:58:58;;;;;;;2.10;0.57;;;32.00;72.80;;;;;;5066681;28;20040;-71
2023/07/11 10:01:33;;;;;;;3.70;0.70;;;32.00;72.20;;;;;;5054160;28;20020;-72
2023/07/11 10:04:01;;;;;;;3.92;0.70;;;32.00;72.40;;;;;;5045066;28;20252;-72
2023/07/11 10:06:27;;;;;;;1.85;0.70;;;32.10;72.80;;;;;;5029086;28;20031;-72
2023/07/11 10:08:53;;;;;;;2.97;0.77;;;32.00;71.10;;;;;;5052324;28;20035;-71
2023/07/11 10:11:21;;;;;;;2.88;0.70;;;32.00;71.20;;;;;;5052282;28;20525;-71
2023/07/11 10:13:56;;;;;;;6.70;1.00;;;32.00;70.30;;;;;;5052429;28;21109;-71
2023/07/11 10:16:22;;;;;;;2.90;0.70;;;32.00;70.30;;;;;;5054970;28;20028;-72
2023/07/11 10:18:52;;;;;;;2.38;0.90;;;31.80;70.40;;;;;;5052441;28;20040;-74
2023/07/11 10:21:24;;;;;;;4.95;1.15;;;31.90;70.90;;;;;;5068619;28;20040;-73
2023/07/11 10:23:52;;;;;;;1.70;0.90;;;31.90;70.50;;;;;;5058572;28;20042;-73
2023/07/11 10:26:27;;;;;;;1.85;0.68;;;31.90;70.70;;;;;;5060584;28;20040;-72
2023/07/11 10:29:00;;;;;;;3.88;0.65;;;32.00;70.50;;;;;;5052126;28;20114;-73
2023/07/11 10:31:38;;;;;;;3.92;0.82;;;32.30;70.50;;;;;;5054704;28;20398;-72
2023/07/11 10:34:34;;;;;;;1.75;0.60;;;32.50;69.80;;;;;;5049964;28;20800;-72
2023/07/11 10:37:22;;;;;;;2.83;0.88;;;32.80;69.70;;;;;;5048634;28;20509;-71
2023/07/11 10:39:53;;;;;;;2.95;0.90;;;33.10;69.60;;;;;;5051641;28;20430;-72
2023/07/11 10:42:39;;;;;;;1.60;0.70;;;33.40;68.80;;;;;;5049630;28;20408;-73
2023/07/11 10:45:15;;;;;;;4.00;0.82;;;33.50;67.90;;;;;;5047134;28;20048;-72
2023/07/11 10:48:21;;;;;;;2.67;0.70;;;33.50;67.50;;;;;;5059813;28;20459;-71
2023/07/11 10:50:58;;;;;;;3.53;1.05;;;33.50;68.30;;;;;;5046493;28;20054;-72
2023/07/11 10:54:09;;;;;;;4.18;1.05;;;33.70;68.20;;;;;;5046124;28;22152;-72
2023/07/11 10:56:44;;;;;;;4.70;2.40;;;34.00;67.50;;;;;;5051372;28;21573;-72
2023/07/11 10:59:16;;;;;;;2.95;1.10;;;34.10;67.40;;;;;;5048959;28;20048;-70
2023/07/11 11:02:02;;;;;;;4.20;1.10;;;34.10;67.10;;;;;;5051524;28;20054;-71
2023/07/11 11:04:53;;;;;;;3.10;1.13;;;34.10;66.70;;;;;;5050790;28;20032;-71
2023/07/11 11:07:40;;;;;;;2.85;1.00;;;34.00;65.90;;;;;;5061025;28;20048;-71
2023/07/11 11:10:33;;;;;;;2.42;0.70;;;34.00;65.70;;;;;;5059205;28;20035;-71
2023/07/11 11:13:14;;;;;;;2.78;0.82;;;33.90;65.90;;;;;;5054897;28;20040;-71
2023/07/11 11:16:14;;;;;;;3.33;1.05;;;34.00;65.00;;;;;;5052939;28;20421;-71
2023/07/11 11:19:04;;;;;;;3.25;0.90;;;34.10;64.80;;;;;;5050842;28;20071;-71
2023/07/11 11:21:33;;;;;;;3.65;0.80;;;34.30;64.30;;;;;;5053062;28;20537;-71
2023/07/11 11:24:16;;;;;;;3.08;1.10;;;34.50;63.70;;;;;;5048647;28;20051;-71
2023/07/11 11:27:00;;;;;;;4.28;0.85;;;34.50;63.70;;;;;;5038645;28;20036;-71
2023/07/11 11:29:48;;;;;;;4.82;0.90;;;35.00;63.60;;;;;;5058384;28;20031;-71
2023/07/11 11:32:40;;;;;;;2.65;0.80;;;35.70;63.10;;;;;;5055702;28;20036;-72
2023/07/11 11:35:23;;;;;;;3.13;0.95;;;36.10;62.10;;;;;;5052680;28;21352;-71
2023/07/11 11:38:23;;;;;;;2.90;0.93;;;36.30;61.60;;;;;;5054717;28;20975;-71
2023/07/11 11:40:54;;;;;;;4.97;0.80;;;36.40;61.00;;;;;;5049246;28;20036;-71
2023/07/11 11:43:24;;;;;;;2.60;0.88;;;36.40;61.10;;;;;;5049332;28;20062;-71
2023/07/11 11:45:51;;;;;;;2.75;0.80;;;36.40;60.60;;;;;;5036386;28;20020;-71
2023/07/11 11:48:27;;;;;;;4.28;0.90;;;36.30;60.30;;;;;;5058893;28;20043;-71
2023/07/11 11:50:55;;;;;;;2.88;0.73;;;36.00;59.70;;;;;;5037959;28;20028;-71
2023/07/11 11:53:34;;;;;;;3.00;0.80;;;35.60;59.90;;;;;;5065592;28;20039;-71
2023/07/11 11:56:07;;;;;;;1.90;0.68;;;35.30;59.40;;;;;;5051414;28;20490;-71
2023/07/11 11:58:39;;;;;;;3.50;0.80;;;35.20;60.10;;;;;;5049586;28;20029;-71
2023/07/11 12:01:05;;;;;;;2.10;0.70;;;35.10;60.10;;;;;;5050357;28;20044;-71
2023/07/11 12:03:34;;;;;;;4.13;1.17;;;34.90;60.00;;;;;;5049315;28;20024;-71
2023/07/11 12:06:22;;;;;;;3.35;0.80;;;34.90;60.20;;;;;;5052705;28;20039;-71
2023/07/11 12:09:28;;;;;;;2.88;0.88;;;34.80;60.20;;;;;;5060615;28;20036;-71
2023/07/11 12:12:11;;;;;;;2.53;0.82;;;34.80;60.80;;;;;;5051092;28;20701;-71
2023/07/11 12:14:55;;;;;;;3.40;1.00;;;34.80;61.30;;;;;;5050050;28;20113;-71
2023/07/11 12:17:34;;;;;;;3.25;0.65;;;34.90;61.30;;;;;;5050089;28;20044;-72
2023/07/11 12:20:00;;;;;;;2.90;1.73;;;35.00;61.20;;;;;;5047893;28;20320;-72
2023/07/11 12:22:51;;;;;;;2.65;0.85;;;35.20;61.00;;;;;;5046701;28;20594;-72
2023/07/11 12:25:29;;;;;;;6.00;1.37;;;35.40;60.80;;;;;;5051390;28;20471;-71
2023/07/11 12:28:01;;;;;;;2.40;1.02;;;35.50;60.60;;;;;;5037742;28;20043;-71
2023/07/11 12:30:40;;;;;;;6.40;0.90;;;35.70;60.40;;;;;;5056536;28;20043;-72
2023/07/11 12:33:31;;;;;;;3.33;0.90;;;36.00;60.10;;;;;;5036686;28;20039;-72
2023/07/11 12:36:21;;;;;;;2.80;0.70;;;36.60;60.20;;;;;;5043275;28;20055;-71
2023/07/11 12:39:01;;;;;;;3.40;0.70;;;36.90;59.60;;;;;;5031693;28;20407;-72
2023/07/11 12:41:42;;;;;;;3.13;0.88;;;37.10;59.00;;;;;;5051326;28;20032;-71
2023/07/11 12:44:11;;;;;;;;;;;37.00;58.90;;;;;;5050916;28;20383;-71
2023/07/11 12:46:38;;;;;;;2.90;0.73;;;36.80;59.00;;;;;;5049567;28;19908;-71
2023/07/11 12:49:21;;;;;;;2.45;0.70;;;36.50;58.90;;;;;;5053182;28;20096;-71
2023/07/11 12:51:47;;;;;;;3.65;0.80;;;36.40;58.80;;;;;;5057758;28;20035;-71
2023/07/11 12:54:17;;;;;;;3.72;0.85;;;37.00;58.90;;;;;;5050428;28;20047;-71
2023/07/11 12:56:48;;;;;;;4.10;0.90;;;37.90;58.00;;;;;;5052021;28;20032;-72
2023/07/11 12:59:31;;;;;;;2.65;0.85;;;38.60;56.90;;;;;;5046771;28;20032;-71
2023/07/11 13:02:00;;;;;;;2.05;0.70;;;39.40;56.30;;;;;;5046366;28;20047;-72
2023/07/11 13:04:33;;;;;;;2.35;0.80;;;39.90;54.80;;;;;;5048582;28;20467;-71
2023/07/11 13:06:59;;;;;;;2.35;0.80;;;40.40;54.40;;;;;;5049305;28;20051;-71
2023/07/11 13:09:26;;;;;;;4.22;1.00;;;40.80;53.10;;;;;;5053418;28;20402;-72